createdAt,value
2018-10-16T00:00:42.875Z,0.00
2018-10-16T00:01:42.888Z,0.00
2018-10-16T00:02:42.852Z,0.00
2018-10-16T00:03:42.843Z,0.00
2018-10-16T00:04:42.831Z,0.00
2018-10-16T00:05:42.821Z,0.00
2018-10-16T00:06:42.823Z,0.00
2018-10-16T00:07:42.813Z,0.00
2018-10-16T00:08:42.787Z,0.00
2018-10-16T00:09:42.782Z,0.00
2018-10-16T00:10:42.767Z,0.00
2018-10-16T00:11:42.756Z,0.00
2018-10-16T00:12:42.772Z,0.00
2018-10-16T00:13:42.736Z,0.00
2018-10-16T00:14:42.728Z,0.00
2018-10-16T00:15:42.712Z,0.00
2018-10-16T00:16:42.704Z,0.00
2018-10-16T00:17:42.692Z,0.00
2018-10-16T00:18:42.692Z,0.00
2018-10-16T00:19:42.669Z,0.00
2018-10-16T00:20:42.659Z,0.00
2018-10-16T00:21:42.648Z,0.00
2018-10-16T00:22:42.641Z,0.00
2018-10-16T00:23:42.653Z,0.00
2018-10-16T00:24:42.617Z,0.00
2018-10-16T00:25:42.652Z,0.00
2018-10-16T00:26:42.595Z,0.00
2018-10-16T00:27:42.583Z,0.00
2018-10-16T00:28:42.572Z,0.00
2018-10-16T00:29:42.590Z,0.00
2018-10-16T00:30:42.556Z,0.00
2018-10-16T00:31:42.541Z,0.00
2018-10-16T00:32:42.575Z,0.00
2018-10-16T00:33:42.519Z,0.00
2018-10-16T00:34:42.508Z,0.00
2018-10-16T00:35:42.534Z,0.00
2018-10-16T00:36:42.486Z,0.00
2018-10-16T00:37:42.475Z,0.00
2018-10-16T00:38:42.465Z,0.00
2018-10-16T00:39:42.453Z,0.00
2018-10-16T00:40:42.443Z,0.00
2018-10-16T00:41:42.446Z,0.00
2018-10-16T00:42:42.423Z,0.00
2018-10-16T00:43:42.411Z,0.00
2018-10-16T00:44:42.400Z,0.00
2018-10-16T00:45:42.419Z,0.00
2018-10-16T00:46:42.378Z,0.00
2018-10-16T00:47:42.367Z,0.00
2018-10-16T00:48:42.357Z,0.00
2018-10-16T00:49:42.346Z,0.00
2018-10-16T00:50:42.337Z,0.00
2018-10-16T00:51:42.352Z,0.00
2018-10-16T00:52:42.313Z,0.00
2018-10-16T00:53:42.309Z,0.00
2018-10-16T00:54:42.301Z,0.00
2018-10-16T00:55:42.282Z,0.00
2018-10-16T00:56:42.270Z,0.00
2018-10-16T00:57:42.269Z,0.00
2018-10-16T00:58:42.248Z,0.00
2018-10-16T00:59:42.237Z,0.00
2018-10-16T01:00:42.228Z,0.00
2018-10-16T01:01:42.218Z,0.00
2018-10-16T01:02:42.221Z,0.00
2018-10-16T01:03:42.193Z,0.00
2018-10-16T01:04:42.183Z,0.00
2018-10-16T01:05:42.172Z,0.00
2018-10-16T01:06:42.162Z,0.00
2018-10-16T01:07:42.163Z,0.00
2018-10-16T01:08:42.139Z,0.00
2018-10-16T01:09:42.143Z,0.00
2018-10-16T01:10:42.118Z,0.00
2018-10-16T01:11:42.109Z,0.00
2018-10-16T01:12:42.110Z,0.00
2018-10-16T01:13:42.085Z,0.00
2018-10-16T01:14:42.074Z,0.00
2018-10-16T01:15:42.064Z,0.00
2018-10-16T01:16:42.053Z,0.00
2018-10-16T01:17:42.057Z,0.00
2018-10-16T01:18:42.031Z,0.00
2018-10-16T01:19:42.020Z,0.00
2018-10-16T01:20:42.024Z,0.00
2018-10-16T01:21:41.998Z,0.00
2018-10-16T01:22:42.006Z,0.00
2018-10-16T01:23:41.976Z,0.00
2018-10-16T01:24:42.016Z,0.00
2018-10-16T01:25:41.956Z,0.00
2018-10-16T01:26:41.971Z,0.00
2018-10-16T01:27:41.933Z,0.00
2018-10-16T01:28:41.940Z,0.00
2018-10-16T01:29:41.920Z,0.00
2018-10-16T01:30:41.913Z,0.00
2018-10-16T01:31:41.889Z,0.00
2018-10-16T01:32:41.880Z,0.00
2018-10-16T01:33:41.867Z,0.00
2018-10-16T01:34:41.858Z,0.00
2018-10-16T01:35:41.863Z,0.00
2018-10-16T01:36:41.836Z,0.00
2018-10-16T01:37:41.824Z,0.00
2018-10-16T01:38:41.813Z,0.00
2018-10-16T01:39:41.803Z,0.00
2018-10-16T01:40:41.807Z,0.00
2018-10-16T01:41:41.794Z,0.00
2018-10-16T01:42:41.773Z,0.00
2018-10-16T01:43:41.763Z,0.00
2018-10-16T01:44:41.748Z,0.00
2018-10-16T01:45:41.737Z,0.00
2018-10-16T01:46:41.757Z,0.00
2018-10-16T01:47:41.716Z,0.00
2018-10-16T01:48:41.704Z,0.00
2018-10-16T01:49:41.693Z,0.00
2018-10-16T01:50:41.683Z,0.00
2018-10-16T01:51:41.672Z,0.00
2018-10-16T01:52:41.699Z,0.00
2018-10-16T01:53:41.650Z,0.00
2018-10-16T01:54:41.639Z,0.00
2018-10-16T01:55:41.629Z,0.00
2018-10-16T01:56:41.621Z,0.00
2018-10-16T01:57:41.607Z,0.00
2018-10-16T01:58:41.636Z,0.00
2018-10-16T01:59:41.584Z,0.00
2018-10-16T02:00:41.575Z,0.00
2018-10-16T02:01:41.564Z,0.00
2018-10-16T02:02:41.558Z,0.00
2018-10-16T02:03:41.586Z,0.00
2018-10-16T02:04:41.544Z,0.00
2018-10-16T02:05:41.519Z,0.00
2018-10-16T02:06:41.509Z,0.00
2018-10-16T02:07:41.500Z,0.00
2018-10-16T02:08:41.518Z,0.00
2018-10-16T02:09:41.482Z,0.00
2018-10-16T02:10:41.465Z,0.00
2018-10-16T02:11:41.453Z,0.00
2018-10-16T02:12:41.444Z,0.00
2018-10-16T02:13:41.433Z,0.00
2018-10-16T02:14:41.518Z,0.00
2018-10-16T02:15:41.411Z,0.00
2018-10-16T02:16:41.399Z,0.00
2018-10-16T02:17:41.390Z,0.00
2018-10-16T02:18:41.379Z,0.00
2018-10-16T02:19:41.382Z,0.00
2018-10-16T02:20:41.357Z,0.00
2018-10-16T02:21:41.346Z,0.00
2018-10-16T02:22:41.334Z,0.00
2018-10-16T02:23:41.328Z,0.00
2018-10-16T02:24:41.343Z,0.00
2018-10-16T02:25:41.303Z,0.00
2018-10-16T02:26:41.296Z,0.00
2018-10-16T02:27:41.280Z,0.00
2018-10-16T02:28:41.270Z,0.00
2018-10-16T02:29:41.257Z,0.00
2018-10-16T02:30:41.264Z,0.00
2018-10-16T02:31:41.234Z,0.00
2018-10-16T02:32:41.239Z,0.00
2018-10-16T02:33:41.215Z,0.00
2018-10-16T02:34:41.209Z,0.00
2018-10-16T02:35:41.208Z,0.00
2018-10-16T02:36:41.200Z,0.00
2018-10-16T02:37:41.175Z,0.00
2018-10-16T02:38:41.164Z,0.00
2018-10-16T02:39:41.149Z,0.00
2018-10-16T02:40:41.180Z,0.00
2018-10-16T02:41:41.135Z,0.00
2018-10-16T02:42:41.120Z,0.00
2018-10-16T02:43:41.105Z,0.00
2018-10-16T02:44:41.094Z,0.00
2018-10-16T02:45:41.084Z,0.00
2018-10-16T02:46:41.103Z,0.00
2018-10-16T02:47:41.063Z,0.00
2018-10-16T02:48:41.055Z,0.00
2018-10-16T02:49:41.046Z,0.00
2018-10-16T02:50:41.033Z,0.00
2018-10-16T02:51:41.018Z,0.00
2018-10-16T02:52:41.039Z,0.00
2018-10-16T02:53:40.995Z,0.00
2018-10-16T02:54:40.985Z,0.00
2018-10-16T02:55:40.975Z,0.00
2018-10-16T02:56:40.962Z,0.00
2018-10-16T02:57:40.956Z,0.00
2018-10-16T02:58:40.977Z,0.00
2018-10-16T02:59:40.930Z,0.00
2018-10-16T03:00:40.924Z,0.00
2018-10-16T03:01:40.910Z,0.00
2018-10-16T03:02:40.897Z,0.00
2018-10-16T03:03:40.887Z,0.00
2018-10-16T03:04:40.900Z,0.00
2018-10-16T03:05:40.864Z,0.00
2018-10-16T03:06:40.852Z,0.00
2018-10-16T03:07:40.851Z,0.00
2018-10-16T03:08:40.830Z,0.00
2018-10-16T03:09:40.821Z,0.00
2018-10-16T03:10:40.808Z,0.00
2018-10-16T03:11:40.799Z,0.00
2018-10-16T03:12:40.797Z,0.00
2018-10-16T03:13:40.775Z,0.00
2018-10-16T03:14:40.776Z,0.00
2018-10-16T03:15:40.754Z,0.00
2018-10-16T03:16:40.744Z,0.00
2018-10-16T03:17:40.733Z,0.00
2018-10-16T03:18:40.749Z,0.00
2018-10-16T03:19:40.709Z,0.00
2018-10-16T03:20:40.763Z,0.00
2018-10-16T03:21:40.693Z,0.00
2018-10-16T03:22:40.676Z,0.00
2018-10-16T03:23:40.665Z,0.00
2018-10-16T03:24:40.667Z,0.00
2018-10-16T03:25:40.689Z,0.00
2018-10-16T03:26:40.634Z,0.00
2018-10-16T03:27:40.622Z,0.00
2018-10-16T03:28:40.612Z,0.00
2018-10-16T03:29:40.600Z,0.00
2018-10-16T03:30:40.600Z,0.00
2018-10-16T03:31:40.593Z,0.00
2018-10-16T03:32:40.582Z,0.00
2018-10-16T03:33:40.557Z,0.00
2018-10-16T03:34:40.545Z,0.00
2018-10-16T03:35:40.534Z,0.00
2018-10-16T03:36:40.555Z,0.00
2018-10-16T03:37:40.513Z,0.00
2018-10-16T03:38:40.501Z,0.00
2018-10-16T03:39:40.491Z,0.00
2018-10-16T03:40:40.478Z,0.00
2018-10-16T03:41:40.467Z,0.00
2018-10-16T03:42:40.467Z,0.00
2018-10-16T03:43:40.447Z,0.00
2018-10-16T03:44:40.445Z,0.00
2018-10-16T03:45:40.424Z,0.00
2018-10-16T03:46:40.414Z,0.00
2018-10-16T03:47:40.464Z,0.00
2018-10-16T03:48:40.401Z,0.00
2018-10-16T03:49:40.381Z,0.00
2018-10-16T03:50:40.369Z,0.00
2018-10-16T03:51:40.359Z,0.00
2018-10-16T03:52:40.362Z,0.00
2018-10-16T03:53:40.336Z,0.00
2018-10-16T03:54:40.339Z,0.00
2018-10-16T03:55:40.315Z,0.00
2018-10-16T03:56:40.303Z,0.00
2018-10-16T03:57:40.294Z,0.00
2018-10-16T03:58:40.309Z,0.00
2018-10-16T03:59:40.270Z,0.00
2018-10-16T04:00:40.261Z,0.00
2018-10-16T04:01:40.248Z,0.00
2018-10-16T04:02:40.237Z,0.00
2018-10-16T04:03:40.229Z,0.00
2018-10-16T04:04:40.229Z,0.00
2018-10-16T04:05:40.207Z,0.00
2018-10-16T04:06:40.252Z,0.00
2018-10-16T04:07:40.184Z,0.00
2018-10-16T04:08:40.172Z,0.00
2018-10-16T04:09:40.172Z,0.00
2018-10-16T04:10:40.154Z,0.00
2018-10-16T04:11:40.139Z,0.00
2018-10-16T04:12:40.130Z,0.00
2018-10-16T04:13:40.128Z,0.00
2018-10-16T04:14:40.107Z,0.00
2018-10-16T04:15:40.096Z,0.00
2018-10-16T04:16:40.085Z,0.00
2018-10-16T04:17:40.075Z,0.00
2018-10-16T04:18:40.078Z,0.00
2018-10-16T04:19:40.055Z,0.00
2018-10-16T04:20:40.041Z,0.00
2018-10-16T04:21:40.031Z,0.00
2018-10-16T04:22:40.042Z,0.00
2018-10-16T04:23:40.009Z,0.00
2018-10-16T04:24:40.006Z,0.00
2018-10-16T04:25:39.986Z,0.00
2018-10-16T04:26:39.974Z,0.00
2018-10-16T04:27:39.966Z,0.00
2018-10-16T04:28:39.964Z,0.00
2018-10-16T04:29:39.941Z,0.00
2018-10-16T04:30:39.957Z,0.00
2018-10-16T04:31:39.921Z,0.00
2018-10-16T04:32:39.911Z,0.00
2018-10-16T04:33:39.899Z,0.00
2018-10-16T04:34:39.892Z,0.00
2018-10-16T04:35:39.876Z,0.00
2018-10-16T04:36:39.905Z,0.00
2018-10-16T04:37:39.854Z,0.00
2018-10-16T04:38:39.844Z,0.00
2018-10-16T04:39:39.833Z,0.00
2018-10-16T04:40:39.823Z,0.00
2018-10-16T04:41:39.936Z,0.00
2018-10-16T04:42:39.813Z,0.00
2018-10-16T04:43:39.796Z,0.00
2018-10-16T04:44:39.780Z,0.00
2018-10-16T04:45:39.768Z,0.00
2018-10-16T04:46:39.771Z,0.00
2018-10-16T04:47:39.770Z,0.00
2018-10-16T04:48:39.736Z,0.00
2018-10-16T04:49:39.725Z,0.00
2018-10-16T04:50:39.713Z,0.00
2018-10-16T04:51:39.717Z,0.00
2018-10-16T04:52:39.854Z,0.00
2018-10-16T04:53:39.680Z,0.00
2018-10-16T04:54:39.670Z,0.00
2018-10-16T04:55:39.657Z,0.00
2018-10-16T04:56:39.646Z,0.00
2018-10-16T04:57:39.635Z,0.00
2018-10-16T04:58:39.659Z,0.00
2018-10-16T04:59:39.613Z,0.00
2018-10-16T05:00:39.603Z,0.00
2018-10-16T05:01:39.592Z,0.00
2018-10-16T05:02:39.581Z,0.00
2018-10-16T05:03:39.570Z,0.00
2018-10-16T05:04:39.578Z,0.00
2018-10-16T05:05:39.551Z,0.00
2018-10-16T05:06:39.540Z,0.00
2018-10-16T05:07:39.530Z,0.00
2018-10-16T05:08:39.518Z,0.00
2018-10-16T05:09:39.520Z,0.00
2018-10-16T05:10:39.493Z,0.00
2018-10-16T05:11:39.482Z,0.00
2018-10-16T05:12:39.498Z,0.00
2018-10-16T05:13:39.461Z,0.00
2018-10-16T05:14:39.450Z,0.00
2018-10-16T05:15:39.452Z,0.00
2018-10-16T05:16:39.428Z,0.00
2018-10-16T05:17:39.415Z,0.00
2018-10-16T05:18:39.405Z,0.00
2018-10-16T05:19:39.398Z,0.00
2018-10-16T05:20:39.411Z,0.00
2018-10-16T05:21:39.372Z,0.00
2018-10-16T05:22:39.361Z,0.00
2018-10-16T05:23:39.350Z,0.00
2018-10-16T05:24:39.340Z,0.00
2018-10-16T05:25:39.328Z,0.00
2018-10-16T05:26:39.353Z,0.00
2018-10-16T05:27:39.338Z,0.00
2018-10-16T05:28:39.295Z,0.00
2018-10-16T05:29:39.285Z,0.00
2018-10-16T05:30:39.274Z,0.00
2018-10-16T05:31:39.372Z,0.00
2018-10-16T05:32:39.252Z,0.00
2018-10-16T05:33:39.252Z,0.00
2018-10-16T05:34:39.229Z,0.00
2018-10-16T05:35:39.219Z,0.00
2018-10-16T05:36:39.207Z,0.00
2018-10-16T05:37:39.210Z,0.00
2018-10-16T05:38:39.186Z,0.00
2018-10-16T05:39:39.184Z,0.00
2018-10-16T05:40:39.164Z,0.00
2018-10-16T05:41:39.153Z,0.00
2018-10-16T05:42:39.153Z,0.00
2018-10-16T05:43:39.132Z,5.62
2018-10-16T05:44:39.125Z,5.62
2018-10-16T05:45:39.109Z,5.62
2018-10-16T05:46:39.136Z,5.62
2018-10-16T05:47:39.089Z,5.62
2018-10-16T05:48:39.077Z,5.62
2018-10-16T05:49:39.067Z,5.62
2018-10-16T05:50:39.056Z,11.25
2018-10-16T05:51:39.046Z,11.25
2018-10-16T05:52:39.043Z,11.25
2018-10-16T05:53:39.025Z,11.25
2018-10-16T05:54:39.011Z,11.25
2018-10-16T05:55:39.004Z,16.88
2018-10-16T05:56:38.996Z,16.88
2018-10-16T05:57:38.991Z,16.88
2018-10-16T05:58:38.971Z,16.88
2018-10-16T05:59:38.968Z,22.50
2018-10-16T06:00:38.948Z,22.50
2018-10-16T06:01:38.934Z,22.50
2018-10-16T06:02:38.923Z,28.12
2018-10-16T06:03:38.912Z,28.12
2018-10-16T06:04:38.913Z,33.75
2018-10-16T06:05:38.959Z,33.75
2018-10-16T06:06:38.881Z,39.38
2018-10-16T06:07:38.875Z,39.38
2018-10-16T06:08:38.869Z,45.00
2018-10-16T06:09:38.850Z,45.00
2018-10-16T06:10:38.875Z,50.62
2018-10-16T06:11:38.827Z,50.62
2018-10-16T06:12:38.818Z,56.25
2018-10-16T06:13:38.819Z,56.25
2018-10-16T06:14:38.796Z,56.25
2018-10-16T06:15:38.811Z,61.88
2018-10-16T06:16:38.773Z,61.88
2018-10-16T06:17:38.761Z,61.88
2018-10-16T06:18:38.748Z,61.88
2018-10-16T06:19:38.739Z,67.50
2018-10-16T06:20:38.729Z,67.50
2018-10-16T06:21:38.731Z,73.12
2018-10-16T06:22:38.706Z,73.12
2018-10-16T06:23:38.695Z,78.75
2018-10-16T06:24:38.700Z,78.75
2018-10-16T06:25:38.688Z,84.38
2018-10-16T06:26:38.663Z,84.38
2018-10-16T06:27:38.656Z,84.38
2018-10-16T06:28:38.648Z,84.38
2018-10-16T06:29:38.674Z,90.00
2018-10-16T06:30:38.619Z,90.00
2018-10-16T06:31:38.609Z,95.62
2018-10-16T06:32:38.598Z,95.62
2018-10-16T06:33:38.590Z,95.62
2018-10-16T06:34:38.575Z,101.25
2018-10-16T06:35:38.580Z,106.88
2018-10-16T06:36:38.552Z,112.50
2018-10-16T06:37:38.570Z,112.50
2018-10-16T06:38:38.531Z,118.12
2018-10-16T06:39:38.522Z,123.75
2018-10-16T06:40:38.599Z,123.75
2018-10-16T06:41:38.556Z,129.38
2018-10-16T06:42:38.487Z,135.00
2018-10-16T06:43:38.506Z,135.00
2018-10-16T06:44:38.467Z,140.62
2018-10-16T06:45:38.454Z,146.25
2018-10-16T06:46:38.506Z,146.25
2018-10-16T06:47:38.544Z,151.88
2018-10-16T06:48:38.746Z,157.50
2018-10-16T06:49:38.423Z,163.12
2018-10-16T06:50:38.403Z,168.75
2018-10-16T06:51:38.388Z,174.38
2018-10-16T06:52:38.378Z,174.38
2018-10-16T06:53:38.367Z,180.00
2018-10-16T06:54:38.378Z,185.62
2018-10-16T06:55:38.345Z,185.62
2018-10-16T06:56:38.335Z,191.25
2018-10-16T06:57:38.324Z,191.25
2018-10-16T06:58:38.313Z,191.25
2018-10-16T06:59:38.342Z,196.88
2018-10-16T07:00:38.308Z,196.88
2018-10-16T07:01:38.286Z,202.50
2018-10-16T07:02:38.283Z,202.50
2018-10-16T07:03:38.258Z,208.12
2018-10-16T07:04:38.247Z,213.75
2018-10-16T07:05:38.250Z,213.75
2018-10-16T07:06:38.249Z,213.75
2018-10-16T07:07:38.218Z,219.38
2018-10-16T07:08:38.204Z,219.38
2018-10-16T07:09:38.194Z,225.00
2018-10-16T07:10:38.196Z,225.00
2018-10-16T07:11:38.171Z,225.00
2018-10-16T07:12:38.161Z,230.62
2018-10-16T07:13:38.164Z,230.62
2018-10-16T07:14:38.139Z,230.62
2018-10-16T07:15:38.129Z,230.62
2018-10-16T07:16:38.137Z,230.62
2018-10-16T07:17:38.107Z,236.25
2018-10-16T07:18:38.099Z,236.25
2018-10-16T07:19:38.089Z,241.88
2018-10-16T07:20:38.076Z,241.88
2018-10-16T07:21:38.120Z,247.50
2018-10-16T07:22:38.057Z,253.12
2018-10-16T07:23:38.119Z,258.75
2018-10-16T07:24:38.035Z,258.75
2018-10-16T07:25:38.028Z,264.38
2018-10-16T07:26:38.015Z,264.38
2018-10-16T07:27:38.044Z,270.00
2018-10-16T07:28:37.993Z,264.38
2018-10-16T07:29:37.982Z,270.00
2018-10-16T07:30:37.970Z,275.62
2018-10-16T07:31:37.960Z,281.25
2018-10-16T07:32:37.948Z,286.88
2018-10-16T07:33:37.951Z,292.50
2018-10-16T07:34:37.928Z,298.12
2018-10-16T07:35:37.915Z,320.62
2018-10-16T07:36:37.904Z,320.62
2018-10-16T07:37:37.931Z,320.62
2018-10-16T07:38:37.917Z,337.50
2018-10-16T07:39:37.871Z,343.12
2018-10-16T07:40:37.860Z,360.00
2018-10-16T07:41:37.848Z,371.25
2018-10-16T07:42:37.838Z,388.12
2018-10-16T07:43:37.840Z,410.62
2018-10-16T07:44:37.814Z,433.12
2018-10-16T07:45:37.845Z,472.50
2018-10-16T07:46:37.824Z,466.88
2018-10-16T07:47:37.781Z,438.75
2018-10-16T07:48:37.878Z,444.38
2018-10-16T07:49:37.759Z,466.88
2018-10-16T07:50:37.747Z,416.25
2018-10-16T07:51:37.752Z,393.75
2018-10-16T07:52:37.725Z,382.50
2018-10-16T07:53:37.744Z,410.62
2018-10-16T07:54:37.703Z,371.25
2018-10-16T07:55:37.692Z,393.75
2018-10-16T07:56:37.681Z,365.62
2018-10-16T07:57:37.670Z,393.75
2018-10-16T07:58:37.661Z,354.38
2018-10-16T07:59:37.662Z,343.12
2018-10-16T08:00:37.649Z,343.12
2018-10-16T08:01:37.641Z,348.75
2018-10-16T08:02:37.617Z,360.00
2018-10-16T08:03:37.605Z,371.25
2018-10-16T08:04:37.591Z,388.12
2018-10-16T08:05:37.616Z,393.75
2018-10-16T08:06:37.569Z,405.00
2018-10-16T08:07:37.558Z,421.88
2018-10-16T08:08:37.547Z,450.00
2018-10-16T08:09:37.536Z,416.25
2018-10-16T08:10:37.524Z,410.62
2018-10-16T08:11:37.530Z,421.88
2018-10-16T08:12:37.505Z,416.25
2018-10-16T08:13:37.493Z,427.50
2018-10-16T08:14:37.483Z,455.62
2018-10-16T08:15:37.470Z,500.62
2018-10-16T08:16:37.475Z,888.75
2018-10-16T08:17:37.453Z,956.25
2018-10-16T08:18:37.438Z,1102.50
2018-10-16T08:19:37.432Z,1119.38
2018-10-16T08:20:37.431Z,1091.25
2018-10-16T08:21:37.406Z,1192.50
2018-10-16T08:22:37.409Z,793.12
2018-10-16T08:23:37.385Z,691.88
2018-10-16T08:24:37.374Z,714.38
2018-10-16T08:25:37.378Z,641.25
2018-10-16T08:26:37.382Z,630.00
2018-10-16T08:27:37.340Z,630.00
2018-10-16T08:28:37.330Z,618.75
2018-10-16T08:29:37.320Z,607.50
2018-10-16T08:30:37.464Z,658.12
2018-10-16T08:31:37.302Z,624.38
2018-10-16T08:32:37.324Z,596.25
2018-10-16T08:33:37.275Z,579.38
2018-10-16T08:34:37.265Z,573.75
2018-10-16T08:35:37.254Z,568.12
2018-10-16T08:36:37.427Z,562.50
2018-10-16T08:37:37.234Z,562.50
2018-10-16T08:38:37.248Z,562.50
2018-10-16T08:39:37.247Z,568.12
2018-10-16T08:40:37.201Z,585.00
2018-10-16T08:41:37.221Z,585.00
2018-10-16T08:42:37.179Z,596.25
2018-10-16T08:43:37.168Z,601.88
2018-10-16T08:44:37.185Z,613.12
2018-10-16T08:45:37.147Z,607.50
2018-10-16T08:46:37.137Z,618.75
2018-10-16T08:47:37.202Z,624.38
2018-10-16T08:48:37.114Z,641.25
2018-10-16T08:49:37.105Z,663.75
2018-10-16T08:50:37.110Z,680.62
2018-10-16T08:51:37.082Z,703.12
2018-10-16T08:52:37.071Z,731.25
2018-10-16T08:53:37.060Z,742.50
2018-10-16T08:54:37.061Z,781.88
2018-10-16T08:55:37.038Z,883.12
2018-10-16T08:56:37.028Z,1040.62
2018-10-16T08:57:37.030Z,1783.12
2018-10-16T08:58:37.006Z,1428.75
2018-10-16T08:59:36.995Z,1411.88
2018-10-16T09:00:37.003Z,1586.25
2018-10-16T09:01:36.974Z,1676.25
2018-10-16T09:02:36.976Z,1833.75
2018-10-16T09:03:36.952Z,1895.62
2018-10-16T09:04:36.939Z,1850.62
2018-10-16T09:05:36.930Z,1738.12
2018-10-16T09:06:36.967Z,1580.62
2018-10-16T09:07:36.926Z,1760.62
2018-10-16T09:08:36.899Z,1788.75
2018-10-16T09:09:36.889Z,1704.38
2018-10-16T09:10:36.878Z,1569.38
2018-10-16T09:11:36.880Z,1591.88
2018-10-16T09:12:36.856Z,1867.50
2018-10-16T09:13:36.844Z,1890.00
2018-10-16T09:14:36.876Z,1850.62
2018-10-16T09:15:36.822Z,1845.00
2018-10-16T09:16:36.826Z,1912.50
2018-10-16T09:17:36.803Z,1788.75
2018-10-16T09:18:36.791Z,1687.50
2018-10-16T09:19:36.793Z,1710.00
2018-10-16T09:20:36.769Z,1777.50
2018-10-16T09:21:36.760Z,1816.88
2018-10-16T09:22:36.751Z,1822.50
2018-10-16T09:23:36.768Z,1653.75
2018-10-16T09:24:36.825Z,1895.62
2018-10-16T09:25:36.717Z,1771.88
2018-10-16T09:26:36.707Z,1856.25
2018-10-16T09:27:36.696Z,2025.00
2018-10-16T09:28:36.686Z,2098.12
2018-10-16T09:29:36.710Z,1946.25
2018-10-16T09:30:36.704Z,1496.25
2018-10-16T09:31:36.654Z,1608.75
2018-10-16T09:32:36.646Z,1552.50
2018-10-16T09:33:36.633Z,1395.00
2018-10-16T09:34:36.622Z,1411.88
2018-10-16T09:35:36.629Z,1344.38
2018-10-16T09:36:36.602Z,1192.50
2018-10-16T09:37:36.697Z,1147.50
2018-10-16T09:38:36.580Z,1080.00
2018-10-16T09:39:36.570Z,1085.62
2018-10-16T09:40:36.577Z,1085.62
2018-10-16T09:41:36.549Z,956.25
2018-10-16T09:42:36.538Z,849.38
2018-10-16T09:43:36.527Z,815.62
2018-10-16T09:44:36.517Z,804.38
2018-10-16T09:45:36.542Z,810.00
2018-10-16T09:46:36.500Z,832.50
2018-10-16T09:47:36.487Z,855.00
2018-10-16T09:48:36.476Z,877.50
2018-10-16T09:49:36.562Z,916.88
2018-10-16T09:50:36.454Z,939.38
2018-10-16T09:51:36.459Z,939.38
2018-10-16T09:52:36.435Z,945.00
2018-10-16T09:53:36.446Z,950.62
2018-10-16T09:54:36.407Z,978.75
2018-10-16T09:55:36.399Z,1012.50
2018-10-16T09:56:36.387Z,1063.12
2018-10-16T09:57:36.376Z,1074.38
2018-10-16T09:58:36.365Z,995.62
2018-10-16T09:59:36.368Z,961.88
2018-10-16T10:00:36.346Z,950.62
2018-10-16T10:01:36.331Z,961.88
2018-10-16T10:02:36.320Z,1012.50
2018-10-16T10:03:36.310Z,1029.38
2018-10-16T10:04:36.309Z,984.38
2018-10-16T10:05:36.287Z,995.62
2018-10-16T10:06:36.277Z,950.62
2018-10-16T10:07:36.267Z,950.62
2018-10-16T10:08:36.270Z,950.62
2018-10-16T10:09:36.259Z,916.88
2018-10-16T10:10:36.233Z,883.12
2018-10-16T10:11:36.222Z,871.88
2018-10-16T10:12:36.211Z,866.25
2018-10-16T10:13:36.201Z,866.25
2018-10-16T10:14:36.208Z,883.12
2018-10-16T10:15:36.212Z,956.25
2018-10-16T10:16:36.167Z,1248.75
2018-10-16T10:17:36.154Z,1721.25
2018-10-16T10:18:36.159Z,1591.88
2018-10-16T10:19:36.132Z,1704.38
2018-10-16T10:20:36.121Z,1518.75
2018-10-16T10:21:36.125Z,1383.75
2018-10-16T10:22:36.099Z,1445.62
2018-10-16T10:23:36.090Z,1327.50
2018-10-16T10:24:36.081Z,1125.00
2018-10-16T10:25:36.068Z,1051.88
2018-10-16T10:26:36.097Z,1091.25
2018-10-16T10:27:36.050Z,1198.12
2018-10-16T10:28:36.036Z,1271.25
2018-10-16T10:29:36.061Z,1186.88
2018-10-16T10:30:36.016Z,1226.25
2018-10-16T10:31:36.004Z,1513.12
2018-10-16T10:32:36.021Z,1231.88
2018-10-16T10:33:35.984Z,1659.38
2018-10-16T10:34:35.984Z,1597.50
2018-10-16T10:35:36.063Z,2272.50
2018-10-16T10:36:35.952Z,2171.25
2018-10-16T10:37:35.941Z,2064.38
2018-10-16T10:38:35.945Z,2098.12
2018-10-16T10:39:35.920Z,1378.12
2018-10-16T10:40:35.909Z,1473.75
2018-10-16T10:41:35.899Z,1546.88
2018-10-16T10:42:35.919Z,1586.25
2018-10-16T10:43:35.877Z,1473.75
2018-10-16T10:44:35.867Z,1125.00
2018-10-16T10:45:35.856Z,990.00
2018-10-16T10:46:35.845Z,905.62
2018-10-16T10:47:35.836Z,883.12
2018-10-16T10:48:35.851Z,871.88
2018-10-16T10:49:35.816Z,866.25
2018-10-16T10:50:36.071Z,866.25
2018-10-16T10:51:36.120Z,894.38
2018-10-16T10:52:35.788Z,950.62
2018-10-16T10:53:35.771Z,1175.62
2018-10-16T10:54:35.772Z,1361.25
2018-10-16T10:55:35.751Z,1350.00
2018-10-16T10:56:35.781Z,1091.25
2018-10-16T10:57:35.730Z,1040.62
2018-10-16T10:58:35.718Z,922.50
2018-10-16T10:59:35.710Z,871.88
2018-10-16T11:00:35.698Z,781.88
2018-10-16T11:01:35.700Z,708.75
2018-10-16T11:02:35.677Z,691.88
2018-10-16T11:03:35.989Z,691.88
2018-10-16T11:04:35.682Z,691.88
2018-10-16T11:05:35.644Z,736.88
2018-10-16T11:06:35.634Z,956.25
2018-10-16T11:07:35.623Z,1192.50
2018-10-16T11:08:35.614Z,798.75
2018-10-16T11:09:35.603Z,753.75
2018-10-16T11:10:35.606Z,821.25
2018-10-16T11:11:35.582Z,1006.88
2018-10-16T11:12:35.571Z,950.62
2018-10-16T11:13:35.574Z,787.50
2018-10-16T11:14:35.548Z,1546.88
2018-10-16T11:15:35.566Z,1428.75
2018-10-16T11:16:35.528Z,1451.25
2018-10-16T11:17:35.518Z,1462.50
2018-10-16T11:18:35.507Z,1288.12
2018-10-16T11:19:35.516Z,1288.12
2018-10-16T11:20:35.486Z,1417.50
2018-10-16T11:21:35.490Z,1456.88
2018-10-16T11:22:35.467Z,1445.62
2018-10-16T11:23:35.457Z,1434.38
2018-10-16T11:24:35.444Z,1462.50
2018-10-16T11:25:35.447Z,1496.25
2018-10-16T11:26:35.422Z,1530.00
2018-10-16T11:27:35.413Z,1524.38
2018-10-16T11:28:35.402Z,1541.25
2018-10-16T11:29:35.392Z,1513.12
2018-10-16T11:30:35.412Z,1417.50
2018-10-16T11:31:35.371Z,1535.62
2018-10-16T11:32:35.360Z,1423.12
2018-10-16T11:33:35.351Z,1479.38
2018-10-16T11:34:35.338Z,1496.25
2018-10-16T11:35:35.329Z,1456.88
2018-10-16T11:36:35.332Z,1383.75
2018-10-16T11:37:35.311Z,1321.88
2018-10-16T11:38:35.298Z,1170.00
2018-10-16T11:39:35.287Z,1192.50
2018-10-16T11:40:35.277Z,1293.75
2018-10-16T11:41:35.299Z,1378.12
2018-10-16T11:42:35.259Z,1451.25
2018-10-16T11:43:35.246Z,1490.62
2018-10-16T11:44:35.235Z,1558.12
2018-10-16T11:45:35.232Z,1524.38
2018-10-16T11:46:35.215Z,1451.25
2018-10-16T11:47:35.237Z,1563.75
2018-10-16T11:48:35.194Z,1631.25
2018-10-16T11:49:35.199Z,1636.88
2018-10-16T11:50:35.173Z,1631.25
2018-10-16T11:51:35.163Z,1653.75
2018-10-16T11:52:35.152Z,1468.12
2018-10-16T11:53:35.157Z,1288.12
2018-10-16T11:54:35.132Z,1164.38
2018-10-16T11:55:35.122Z,1108.12
2018-10-16T11:56:35.112Z,1023.75
2018-10-16T11:57:35.100Z,973.12
2018-10-16T11:58:35.106Z,928.12
2018-10-16T11:59:35.080Z,905.62
2018-10-16T12:00:35.074Z,871.88
2018-10-16T12:01:35.059Z,855.00
2018-10-16T12:02:35.104Z,843.75
2018-10-16T12:03:35.052Z,838.12
2018-10-16T12:04:35.027Z,843.75
2018-10-16T12:05:35.018Z,849.38
2018-10-16T12:06:35.007Z,860.62
2018-10-16T12:07:34.996Z,871.88
2018-10-16T12:08:35.000Z,877.50
2018-10-16T12:09:34.975Z,877.50
2018-10-16T12:10:34.991Z,877.50
2018-10-16T12:11:34.955Z,877.50
2018-10-16T12:12:34.944Z,871.88
2018-10-16T12:13:34.947Z,860.62
2018-10-16T12:14:34.922Z,849.38
2018-10-16T12:15:34.912Z,838.12
2018-10-16T12:16:34.963Z,815.62
2018-10-16T12:17:34.904Z,798.75
2018-10-16T12:18:34.882Z,776.25
2018-10-16T12:19:34.943Z,759.38
2018-10-16T12:20:34.874Z,748.12
2018-10-16T12:21:34.849Z,731.25
2018-10-16T12:22:34.840Z,720.00
2018-10-16T12:23:34.887Z,714.38
2018-10-16T12:24:34.817Z,708.75
2018-10-16T12:25:34.839Z,708.75
2018-10-16T12:26:34.799Z,708.75
2018-10-16T12:27:34.786Z,708.75
2018-10-16T12:28:34.777Z,708.75
2018-10-16T12:29:34.766Z,708.75
2018-10-16T12:30:34.754Z,703.12
2018-10-16T12:31:34.758Z,703.12
2018-10-16T12:32:34.733Z,697.50
2018-10-16T12:33:34.736Z,697.50
2018-10-16T12:34:34.712Z,697.50
2018-10-16T12:35:34.710Z,697.50
2018-10-16T12:36:34.691Z,691.88
2018-10-16T12:37:34.718Z,686.25
2018-10-16T12:38:34.781Z,691.88
2018-10-16T12:39:34.720Z,691.88
2018-10-16T12:40:34.649Z,691.88
2018-10-16T12:41:34.639Z,691.88
2018-10-16T12:42:34.653Z,691.88
2018-10-16T12:43:34.748Z,686.25
2018-10-16T12:44:34.634Z,691.88
2018-10-16T12:45:34.596Z,686.25
2018-10-16T12:46:34.585Z,680.62
2018-10-16T12:47:34.579Z,691.88